Time;durP1;ratioP1;P1;durP2;ratioP2;P2;SDS_P1;SDS_P2;PMS_P1;PMS_P2;Temp;Humidity;BMP_temperature;BMP_pressure;BME280_temperature;BME280_humidity;BME280_pressure;Samples;Min_cycle;Max_cycle;Signal;HPM_P1;HPM_P2
2022/01/26 00:06:21;;;;;;;21.73;12.57;;;;;;;2.04;80.86;102318.34;4989426;28;20108;-77
2022/01/26 00:09:26;;;;;;;20.10;12.15;;;;;;;2.03;80.97;102307.16;4989673;28;20460;-77
2022/01/26 00:12:29;;;;;;;18.77;11.25;;;;;;;2.32;80.68;102304.03;4989485;28;20044;-77
2022/01/26 00:15:33;;;;;;;21.92;11.43;;;;;;;2.53;79.45;102306.84;4990442;28;20512;-77
2022/01/26 00:18:38;;;;;;;18.27;12.48;;;;;;;2.48;79.21;102305.06;4983047;28;20057;-77
2022/01/26 00:21:48;;;;;;;23.73;12.93;;;;;;;2.34;79.42;102297.19;4971878;28;20583;-77
2022/01/26 00:25:08;;;;;;;24.20;14.02;;;;;;;2.35;79.81;102304.06;4963071;28;20065;-77
2022/01/26 00:28:35;;;;;;;22.67;12.95;;;;;;;2.35;80.10;102303.22;4990035;28;20044;-77
2022/01/26 00:38:46;;;;;;;24.35;13.32;;;;;;;1.90;82.37;102318.19;4998939;28;20112;-77
2022/01/26 00:41:49;;;;;;;24.75;14.40;;;;;;;1.85;82.42;102312.09;5004650;28;20057;-77
2022/01/26 00:44:53;;;;;;;28.08;15.73;;;;;;;1.80;83.23;102309.47;4998518;28;20084;-77
2022/01/26 00:47:57;;;;;;;22.38;13.02;;;;;;;1.91;82.77;102316.47;4987813;28;20044;-77
2022/01/26 00:51:04;;;;;;;25.00;13.77;;;;;;;2.00;82.89;102311.44;5011009;28;20107;-77
2022/01/26 00:54:08;;;;;;;24.10;14.70;;;;;;;2.20;82.32;102311.66;4997617;28;20056;-77
2022/01/26 00:57:12;;;;;;;18.45;11.63;;;;;;;2.02;82.81;102313.19;5010110;28;20065;-77
2022/01/26 01:00:19;;;;;;;24.63;14.30;;;;;;;2.20;82.01;102315.13;4985003;28;20076;-77
2022/01/26 01:03:23;;;;;;;26.73;13.90;;;;;;;2.04;82.72;102316.66;5009407;28;20129;-77
2022/01/26 01:06:29;;;;;;;21.35;13.55;;;;;;;2.04;83.16;102316.66;4985865;28;20048;-77
2022/01/26 01:09:34;;;;;;;27.92;14.73;;;;;;;1.62;84.33;102309.25;4992637;28;20052;-77
2022/01/26 01:12:42;;;;;;;31.55;14.05;;;;;;;1.65;84.55;102306.69;4986778;28;20145;-77
2022/01/26 01:15:48;;;;;;;24.67;14.13;;;;;;;1.82;84.55;102306.94;4998397;28;20125;-77
2022/01/26 01:19:11;;;;;;;26.48;15.25;;;;;;;1.66;85.43;102305.88;5010744;28;20080;-77
2022/01/26 01:22:31;;;;;;;28.42;15.10;;;;;;;1.70;85.46;102319.69;5009464;28;20558;-77
2022/01/26 01:29:22;;;;;;;28.48;16.15;;;;;;;1.64;86.28;102310.13;4949699;29;20516;-77
2022/01/26 01:32:39;;;;;;;22.40;15.15;;;;;;;1.55;87.20;102302.28;4949760;28;20118;-77
2022/01/26 01:35:44;;;;;;;24.85;14.90;;;;;;;1.95;85.90;102319.13;4990468;28;20065;-77
2022/01/26 01:38:48;;;;;;;23.58;14.05;;;;;;;1.84;85.17;102311.25;4988552;28;20049;-77
2022/01/26 01:41:51;;;;;;;22.10;13.45;;;;;;;1.65;86.32;102309.28;4990588;28;20053;-77
2022/01/26 01:44:55;;;;;;;22.67;13.77;;;;;;;2.08;85.03;102307.25;4989814;28;20053;-77
2022/01/26 01:47:58;;;;;;;;;;;;;;;2.33;84.08;102316.13;4990425;28;20126;-77
2022/01/26 01:51:07;;;;;;;20.23;13.00;;;;;;;2.24;83.25;102323.75;4988217;28;20439;-77
2022/01/26 01:54:15;;;;;;;18.17;10.75;;;;;;;2.50;81.76;102330.06;4978133;28;20049;-77
2022/01/26 01:57:23;;;;;;;19.80;12.23;;;;;;;2.67;81.49;102321.59;4988917;28;20089;-77
2022/01/26 02:00:28;;;;;;;18.88;12.70;;;;;;;2.73;80.78;102319.06;4989060;28;20112;-77
2022/01/26 02:03:32;;;;;;;20.27;12.63;;;;;;;2.74;80.30;102315.63;4990333;28;20528;-77
2022/01/26 02:06:35;;;;;;;19.63;12.10;;;;;;;2.77;80.86;102318.25;4992913;28;20045;-77
2022/01/26 02:09:38;;;;;;;15.23;10.18;;;;;;;2.79;80.40;102306.22;4992458;28;20636;-77
2022/01/26 02:12:47;;;;;;;14.40;10.00;;;;;;;2.65;80.54;102307.78;4992356;28;20069;-77
2022/01/26 02:16:09;;;;;;;14.63;8.75;;;;;;;2.37;80.93;102314.44;4992968;28;20096;-77
2022/01/26 02:49:54;;;;;;;13.20;8.80;;;;;;;2.56;80.97;102304.28;5012112;28;20571;-77
2022/01/26 02:56:07;;;;;;;11.80;8.13;;;;;;;2.29;81.41;102301.44;5000273;28;20403;-77
2022/01/26 02:59:48;;;;;;;12.32;8.27;;;;;;;2.20;82.18;102302.22;4989219;28;20393;-77
2022/01/26 03:02:59;;;;;;;12.07;8.48;;;;;;;2.22;82.17;102305.66;4988080;28;20060;-77
2022/01/26 03:06:11;;;;;;;12.25;7.95;;;;;;;2.30;81.73;102285.13;5012311;28;20192;-77
2022/01/26 03:09:19;;;;;;;14.68;8.45;;;;;;;2.28;81.83;102289.38;4969488;28;20073;-77
2022/01/26 03:12:32;;;;;;;17.52;10.82;;;;;;;2.46;81.31;102287.00;4980523;28;20041;-77
2022/01/26 03:15:41;;;;;;;11.68;8.10;;;;;;;2.30;81.50;102274.78;4992868;28;20065;-77
2022/01/26 03:34:07;;;;;;;14.68;8.60;;;;;;;2.06;82.77;102283.13;4999153;28;20057;-77
2022/01/26 03:37:13;;;;;;;11.25;7.70;;;;;;;2.27;82.15;102290.25;4999037;28;20149;-77
2022/01/26 03:40:17;;;;;;;12.02;8.10;;;;;;;2.26;81.90;102284.19;4988966;28;20111;-77
2022/01/26 03:43:20;;;;;;;;;;;;;;;2.46;81.73;102292.16;4999813;28;20040;-77
2022/01/26 03:46:24;;;;;;;11.90;7.85;;;;;;;2.20;82.42;102288.44;4998858;28;19921;-77
2022/01/26 03:49:28;;;;;;;14.13;8.55;;;;;;;2.14;82.88;102283.19;5010103;28;20534;-76
2022/01/26 03:52:31;;;;;;;14.48;7.75;;;;;;;2.19;82.44;102278.97;4999358;28;20054;-77
2022/01/26 03:55:34;;;;;;;;;;;;;;;2.22;81.95;102276.41;4988840;28;20573;-77
2022/01/26 03:58:38;;;;;;;;;;;;;;;1.88;82.67;102268.28;5012353;28;19979;-77
2022/01/26 04:01:41;;;;;;;;;;;;;;;2.09;82.96;102267.69;4991939;28;19920;-77
2022/01/26 04:04:50;;;;;;;;;;;;;;;2.04;81.99;102266.75;5008651;28;19920;-77
2022/01/26 04:07:58;;;;;;;;;;;;;;;2.07;81.90;102257.34;4999284;28;19967;-77
2022/01/26 04:14:21;;;;;;;;;;;;;;;2.00;82.13;102247.78;5001236;28;19924;-77
2022/01/26 04:17:24;;;;;;;;;;;;;;;1.60;82.36;102231.88;5004390;28;19939;-77
2022/01/26 04:20:31;;;;;;;;;;;;;;;1.63;82.60;102237.09;4987943;28;19964;-76
2022/01/26 04:23:45;;;;;;;;;;;;;;;1.73;82.10;102234.63;4998940;28;20351;-77
2022/01/26 04:26:55;;;;;;;;;;;;;;;1.63;82.58;102234.50;5010728;28;19920;-77
2022/01/26 04:29:59;;;;;;;;;;;;;;;1.84;81.74;102249.34;5009231;28;19963;-77
2022/01/26 04:33:05;;;;;;;;;;;;;;;1.88;82.32;102255.41;4998393;28;19924;-77
2022/01/26 04:36:13;;;;;;;;;;;;;;;1.73;82.42;102273.28;4998023;28;19936;-77
2022/01/26 04:39:22;;;;;;;;;;;;;;;1.72;82.56;102276.69;4987379;28;20256;-77
2022/01/26 04:42:37;;;;;;;;;;;;;;;1.68;82.46;102277.53;5017473;28;19920;-77
2022/01/26 04:45:40;;;;;;;;;;;;;;;1.53;83.40;102267.88;4998717;28;19966;-77
2022/01/26 04:48:44;;;;;;;;;;;;;;;1.54;83.59;102267.03;5011503;28;19920;-76
2022/01/26 04:51:47;;;;;;;;;;;;;;;1.85;82.71;102266.56;4978969;28;19920;-77
2022/01/26 04:54:51;;;;;;;;;;;;;;;1.84;81.64;102261.38;5005565;28;20431;-76
2022/01/26 04:57:54;;;;;;;;;;;;;;;1.99;81.45;102248.66;5009496;28;19924;-76
2022/01/26 05:00:58;;;;;;;;;;;;;;;2.04;80.67;102240.94;5009192;28;19920;-76
2022/01/26 05:04:01;;;;;;;;;;;;;;;2.00;79.94;102223.72;4995967;28;19920;-76
2022/01/26 05:07:05;;;;;;;;;;;;;;;2.32;79.31;102224.03;5010367;28;19920;-76
2022/01/26 05:10:08;;;;;;;;;;;;;;;2.06;80.03;102208.31;5010458;28;20415;-76
2022/01/26 05:13:14;;;;;;;;;;;;;;;2.06;79.73;102213.47;4979646;28;20393;-76
2022/01/26 05:16:17;;;;;;;;;;;;;;;2.23;79.61;102205.88;4979737;28;19968;-75
2022/01/26 05:19:20;;;;;;;;;;;;;;;2.19;80.14;102204.13;4979428;28;19960;-75
2022/01/26 05:22:23;;;;;;;;;;;;;;;2.17;79.94;102200.66;4991087;28;19936;-75
2022/01/26 05:25:27;;;;;;;;;;;;;;;1.82;80.96;102209.78;4982745;28;20036;-75
2022/01/26 05:28:30;;;;;;;;;;;;;;;1.85;81.70;102219.25;4998006;28;19920;-75
2022/01/26 05:31:34;;;;;;;;;;;;;;;1.61;82.42;102215.56;4998597;28;20014;-75
2022/01/26 05:34:37;;;;;;;;;;;;;;;1.67;82.46;102219.06;5009768;28;19976;-75
2022/01/26 05:37:40;;;;;;;;;;;;;;;1.99;81.28;102220.28;5009884;28;19963;-75
2022/01/26 05:40:44;;;;;;;;;;;;;;;2.02;81.39;102237.50;4995951;28;19921;-75
2022/01/26 05:43:47;;;;;;;;;;;;;;;1.62;81.69;102242.19;5010238;28;19991;-76
2022/01/26 05:46:50;;;;;;;;;;;;;;;1.60;82.21;102229.31;5010793;28;19921;-74
2022/01/26 05:49:54;;;;;;;;;;;;;;;1.68;81.47;102233.69;4998139;28;19920;-75
2022/01/26 05:52:57;;;;;;;;;;;;;;;1.71;81.83;102233.72;4987530;28;19920;-75
2022/01/26 05:56:01;;;;;;;;;;;;;;;1.65;82.04;102229.34;4997604;28;19920;-75
2022/01/26 05:59:04;;;;;;;;;;;;;;;1.34;82.85;102234.13;5009766;28;20583;-76
2022/01/26 06:02:08;;;;;;;;;;;;;;;1.54;82.63;102246.41;5008915;28;19951;-76
2022/01/26 06:05:12;;;;;;;;;;;;;;;1.66;82.04;102254.31;5010099;28;20399;-75
2022/01/26 06:08:15;;;;;;;;;;;;;;;1.96;81.10;102258.09;5010012;28;19928;-75
2022/01/26 06:11:18;;;;;;;;;;;;;;;1.66;80.64;102261.16;5010185;28;19955;-76
2022/01/26 06:14:21;;;;;;;;;;;;;;;1.33;82.20;102268.47;5020721;28;20260;-76
2022/01/26 06:17:25;;;;;;;;;;;;;;;1.41;82.56;102284.06;5019861;28;20458;-76
2022/01/26 06:20:28;;;;;;;;;;;;;;;1.49;82.20;102295.31;5008830;28;19967;-76
2022/01/26 06:23:32;;;;;;;;;;;;;;;1.65;81.64;102311.00;4996341;28;20419;-75
2022/01/26 06:26:35;;;;;;;;;;;;;;;1.72;80.63;102310.22;5009276;28;19920;-75
2022/01/26 06:29:38;;;;;;;;;;;;;;;1.32;81.81;102310.56;5008319;28;19921;-75
2022/01/26 06:32:42;;;;;;;;;;;;;;;1.22;82.53;102318.16;4995265;28;19925;-76
2022/01/26 06:35:47;;;;;;;;;;;;;;;1.17;83.02;102307.75;5009921;28;20272;-75
2022/01/26 06:38:50;;;;;;;;;;;;;;;1.24;82.78;102313.84;5009135;28;19971;-75
2022/01/26 06:41:55;;;;;;;;;;;;;;;1.29;82.72;102313.09;5008234;28;19980;-75
2022/01/26 06:48:40;;;;;;;;;;;;;;;1.41;82.21;102320.16;4997289;28;20477;-76
2022/01/26 06:51:40;;;;;;;;;;;;;;;1.61;81.84;102313.53;5009284;28;20460;-76
2022/01/26 06:54:46;;;;;;;;;;;;;;;1.73;81.20;102309.41;5000040;28;19920;-75
2022/01/26 06:57:49;;;;;;;;;;;;;;;1.96;80.17;102305.38;5000224;28;19925;-76
2022/01/26 07:00:52;;;;;;;;;;;;;;;2.27;79.29;102308.31;5012536;28;19924;-76
2022/01/26 07:03:56;;;;;;;;;;;;;;;2.01;79.20;102303.72;5001032;28;19982;-75
2022/01/26 07:06:59;;;;;;;;;;;;;;;1.83;80.36;102290.59;5011700;28;19919;-75
2022/01/26 07:10:03;;;;;;;;;;;;;;;2.07;79.76;102293.47;4989530;28;19920;-75
2022/01/26 07:13:07;;;;;;;;;;;;;;;1.71;80.46;102280.13;4997008;28;20371;-75
2022/01/26 07:22:54;;;;;;;;;;;;;;;1.92;79.92;102269.22;5010557;28;19920;-75
2022/01/26 07:25:58;;;;;;;;;;;;;;;2.01;79.59;102271.88;5000896;28;19920;-75
2022/01/26 07:29:11;;;;;;;;;;;;;;;2.21;79.16;102283.28;4992551;28;20007;-75
2022/01/26 07:32:17;;;;;;;;;;;;;;;2.27;79.13;102277.34;4999796;28;19929;-75
2022/01/26 07:35:21;;;;;;;;;;;;;;;2.13;77.58;102276.31;5000042;28;19967;-76
2022/01/26 07:38:27;;;;;;;;;;;;;;;1.95;78.62;102267.53;4988763;28;19925;-76
2022/01/26 07:41:30;;;;;;;;;;;;;;;2.06;79.16;102265.94;4999688;28;19925;-75
2022/01/26 07:44:34;;;;;;;;;;;;;;;2.14;77.80;102262.56;5010886;28;19923;-76
2022/01/26 07:47:38;;;;;;;;;;;;;;;2.38;77.07;102257.63;5010668;28;20027;-76
2022/01/26 07:50:41;;;;;;;;;;;;;;;2.45;76.33;102271.47;4998489;28;19968;-75
2022/01/26 07:53:45;;;;;;;;;;;;;;;1.96;77.31;102276.13;5022167;28;20396;-76
2022/01/26 07:56:48;;;;;;;;;;;;;;;2.12;77.53;102277.16;5020370;28;20552;-76
2022/01/26 07:59:54;;;;;;;;;;;;;;;2.23;77.39;102262.66;5010599;28;20275;-76
2022/01/26 08:02:58;;;;;;;;;;;;;;;2.36;76.21;102258.47;5005775;28;19921;-76
2022/01/26 08:06:02;;;;;;;;;;;;;;;2.43;76.00;102266.31;5009990;28;19971;-76
2022/01/26 08:09:05;;;;;;;;;;;;;;;2.16;76.68;102284.94;5010258;28;19920;-76
2022/01/26 08:12:10;;;;;;;;;;;;;;;2.09;77.31;102270.25;5010350;28;19936;-76
2022/01/26 08:15:14;;;;;;;;;;;;;;;1.99;78.01;102274.47;5022783;28;19945;-76
2022/01/26 08:18:17;;;;;;;;;;;;;;;1.81;77.78;102269.94;5010651;28;19928;-76
2022/01/26 08:21:21;;;;;;;;;;;;;;;1.61;78.17;102269.69;5009138;28;19963;-76
2022/01/26 08:24:24;;;;;;;;;;;;;;;1.63;78.38;102264.59;4997285;28;19919;-76
2022/01/26 08:27:33;;;;;;;;;;;;;;;1.69;78.40;102269.81;5009459;28;20565;-76
2022/01/26 08:30:37;;;;;;;;;;;;;;;1.69;77.99;102256.91;4998734;28;19920;-76
2022/01/26 08:33:40;;;;;;;;;;;;;;;1.69;77.71;102259.50;4996384;28;19974;-76
2022/01/26 08:36:43;;;;;;;;;;;;;;;1.96;77.71;102247.75;5009990;28;20485;-76
2022/01/26 08:39:47;;;;;;;;;;;;;;;1.96;77.08;102263.25;5020767;28;19923;-76
2022/01/26 08:42:50;;;;;;;;;;;;;;;1.80;77.73;102265.63;5009237;28;19940;-76
2022/01/26 08:45:54;;;;;;;;;;;;;;;1.75;78.46;102256.09;4985386;28;20358;-76
2022/01/26 08:48:58;;;;;;;;;;;;;;;1.77;78.33;102251.84;4997312;28;19985;-75
2022/01/26 08:52:02;;;;;;;;;;;;;;;1.84;78.22;102264.81;5009941;28;19920;-76
2022/01/26 08:55:06;;;;;;;;;;;;;;;1.96;78.12;102260.66;5009786;28;19920;-76
2022/01/26 08:58:09;;;;;;;;;;;;;;;1.91;78.56;102275.22;4975022;28;19960;-76
2022/01/26 09:01:13;;;;;;;;;;;;;;;1.90;78.73;102292.41;5009688;28;19920;-76
2022/01/26 09:04:16;;;;;;;;;;;;;;;2.00;78.33;102299.41;4996539;28;20024;-76
2022/01/26 09:07:20;;;;;;;;;;;;;;;2.05;78.10;102314.94;5008977;28;20464;-76
2022/01/26 09:10:27;;;;;;;;;;;;;;;1.98;78.28;102298.53;4997723;28;19920;-76
2022/01/26 09:13:32;;;;;;;;;;;;;;;1.92;78.39;102303.63;4998105;28;20005;-76
2022/01/26 09:16:35;;;;;;;;;;;;;;;1.81;78.38;102292.28;5010593;28;19920;-76
2022/01/26 09:19:42;;;;;;;;;;;;;;;1.91;78.89;102294.13;4987445;28;19959;-77
2022/01/26 09:22:45;;;;;;;;;;;;;;;1.92;78.52;102288.13;4987172;28;19920;-76
2022/01/26 09:25:49;;;;;;;;;;;;;;;1.86;78.68;102278.59;5010134;28;19968;-76
2022/01/26 09:28:53;;;;;;;;;;;;;;;2.29;77.76;102291.97;4997112;28;19956;-76
2022/01/26 09:31:57;;;;;;;;;;;;;;;2.47;76.72;102304.19;5012933;28;19972;-77
2022/01/26 09:35:00;;;;;;;;;;;;;;;2.09;78.20;102329.59;5010882;28;19959;-76
2022/01/26 09:38:03;;;;;;;;;;;;;;;2.36;78.00;102313.53;5010213;28;19925;-76
2022/01/26 09:41:07;;;;;;;;;;;;;;;2.28;77.59;102310.03;5008771;28;20083;-76
2022/01/26 09:44:10;;;;;;;;;;;;;;;2.36;77.31;102328.16;5007296;28;19920;-76
2022/01/26 09:47:13;;;;;;;;;;;;;;;2.04;78.59;102327.00;4996829;28;19921;-76
2022/01/26 09:50:17;;;;;;;;;;;;;;;2.28;78.15;102333.25;4985515;28;20403;-76
2022/01/26 09:53:26;;;;;;;;;;;;;;;2.33;77.93;102326.44;4995485;28;19920;-76
2022/01/26 09:56:30;;;;;;;;;;;;;;;2.18;78.56;102324.56;5007117;28;19979;-76
2022/01/26 09:59:34;;;;;;;;;;;;;;;2.40;78.35;102328.25;4975919;28;20004;-76
2022/01/26 10:02:39;;;;;;;;;;;;;;;2.16;78.80;102315.06;4988285;28;19921;-76
2022/01/26 10:05:45;;;;;;;;;;;;;;;2.07;79.14;102329.59;4988665;28;19928;-76
2022/01/26 10:18:31;;;;;;;;;;;;;;;2.35;77.42;102331.63;5009936;28;19924;-76
2022/01/26 10:21:44;;;;;;;;;;;;;;;2.21;77.99;102332.34;5008656;28;20367;-75
2022/01/26 10:24:47;;;;;;;;;;;;;;;2.35;77.94;102335.06;4996842;28;20279;-78
2022/01/26 10:27:51;;;;;;;;;;;;;;;2.42;77.79;102338.56;4999517;28;19944;-75
2022/01/26 10:30:54;;;;;;;;;;;;;;;2.65;76.92;102339.69;4986430;28;19920;-79
2022/01/26 10:33:59;;;;;;;;;;;;;;;2.84;76.24;102334.66;5010988;28;19968;-76
2022/01/26 10:37:04;;;;;;;;;;;;;;;2.36;77.26;102330.75;5011496;28;20454;-78
2022/01/26 10:40:13;;;;;;;;;;;;;;;2.41;77.33;102329.97;5009797;28;20276;-76
2022/01/26 10:43:18;;;;;;;;;;;;;;;2.26;77.59;102319.47;5011135;28;19920;-78
2022/01/26 10:46:25;;;;;;;;;;;;;;;2.55;76.49;102315.50;4999604;28;19920;-77
2022/01/26 10:49:54;;;;;;;;;;;;;;;2.68;75.59;102313.00;5011647;28;19960;-78
2022/01/26 10:53:05;;;;;;;;;;;;;;;2.62;75.69;102325.88;5012240;28;19920;-77
2022/01/26 10:56:09;;;;;;;;;;;;;;;2.25;76.05;102325.50;5012077;28;20457;-78
2022/01/26 10:59:13;;;;;;;;;;;;;;;2.16;77.03;102313.34;5000370;28;20434;-78
2022/01/26 11:02:22;;;;;;;;;;;;;;;2.10;77.37;102314.13;4981394;28;19925;-78
2022/01/26 11:05:26;;;;;;;;;;;;;;;2.01;77.61;102314.06;4991833;28;19940;-77
2022/01/26 11:08:34;;;;;;;;;;;;;;;1.99;77.33;102322.63;4979224;28;20479;-81
2022/01/26 11:11:41;;;;;;;;;;;;;;;1.82;78.48;102318.13;4979117;28;19921;-80
2022/01/26 11:14:50;;;;;;;;;;;;;;;1.78;78.70;102323.19;4979614;28;19924;-77
2022/01/26 11:18:04;;;;;;;;;;;;;;;1.72;78.66;102310.22;4980655;28;20320;-77
2022/01/26 11:21:07;;;;;;;;;;;;;;;2.00;77.59;102312.28;4992672;28;19980;-78
2022/01/26 11:24:21;;;;;;;;;;;;;;;1.84;78.55;102307.81;4990351;28;19955;-78
2022/01/26 11:27:33;;;;;;;;;;;;;;;1.99;77.37;102317.47;5012490;28;19920;-77
2022/01/26 11:30:38;;;;;;;;;;;;;;;1.70;78.36;102314.50;4996438;28;19936;-78
2022/01/26 11:33:48;;;;;;;;;;;;;;;1.83;78.11;102325.00;4988591;28;19923;-77
2022/01/26 11:36:51;;;;;;;;;;;;;;;1.70;78.51;102332.56;5010141;28;19923;-79
2022/01/26 11:46:53;;;;;;;;;;;;;;;1.64;78.91;102333.34;4990156;28;19984;-78
2022/01/26 11:50:07;;;;;;;;;;;;;;;1.48;79.40;102319.38;4992269;28;20380;-79
2022/01/26 11:53:11;;;;;;;;;;;;;;;1.67;79.24;102322.22;4982119;28;19933;-78
2022/01/26 11:56:21;;;;;;;;;;;;;;;1.62;78.99;102338.47;5011953;28;19919;-79
2022/01/26 11:59:26;;;;;;;;;;;;;;;1.81;78.56;102334.41;5010966;28;19954;-79
2022/01/26 12:02:58;;;;;;;;;;;;;;;1.98;77.59;102338.91;5012214;28;19925;-78
2022/01/26 12:06:01;;;;;;;;;;;;;;;1.89;77.90;102324.22;5011238;28;20387;-79
2022/01/26 12:09:06;;;;;;;;;;;;;;;1.95;78.38;102323.44;5011534;28;19920;-78
2022/01/26 12:12:15;;;;;;;;;;;;;;;1.87;78.45;102331.06;5009467;28;19919;-79
2022/01/26 12:15:25;;;;;;;;;;;;;;;1.83;78.23;102331.88;5010248;28;20056;-79
2022/01/26 12:18:41;;;;;;;;;;;;;;;1.81;77.96;102330.97;4979506;28;20356;-79
2022/01/26 12:32:31;;;;;;;;;;;;;;;1.93;77.39;102331.13;4997508;28;19924;-79
2022/01/26 12:38:58;;;;;;;;;;;;;;;2.26;76.04;102324.63;4997396;28;19968;-79
2022/01/26 12:42:12;;;;;;;;;;;;;;;2.31;75.56;102322.97;5010812;28;19987;-77
2022/01/26 12:45:23;;;;;;;;;;;;;;;2.27;75.47;102326.38;4998833;28;20414;-79
2022/01/26 12:48:27;;;;;;;;;;;;;;;2.26;75.55;102317.75;5010849;28;19921;-79
2022/01/26 12:51:38;;;;;;;;;;;;;;;2.03;75.29;102322.66;4990154;28;20004;-79
2022/01/26 12:54:45;;;;;;;;;;;;;;;1.97;76.03;102327.75;4991341;28;19920;-79
2022/01/26 12:57:49;;;;;;;;;;;;;;;2.04;76.46;102329.56;4967791;28;20008;-79
2022/01/26 13:00:58;;;;;;;;;;;;;;;1.95;77.04;102341.50;4998230;28;19940;-79
2022/01/26 13:04:03;;;;;;;;;;;;;;;1.92;76.99;102344.91;5009179;28;20055;-80
2022/01/26 13:07:06;;;;;;;;;;;;;;;2.07;76.59;102320.97;5018997;28;20367;-79
2022/01/26 13:10:17;;;;;;;;;;;;;;;2.14;76.54;102314.16;4996878;28;19940;-79
2022/01/26 13:21:03;;;;;;;;;;;;;;;2.17;76.57;102280.66;4978920;28;20049;-80
2022/01/26 13:27:18;;;;;;;;;;;;;;;2.29;76.47;102273.03;4989114;28;20009;-80
2022/01/26 13:37:21;;;;;;;;;;;;;;;2.23;76.12;102273.84;4997740;28;19980;-82
2022/01/26 13:40:49;;;;;;;;;;;;;;;2.29;76.70;102273.03;5010628;28;19919;-79
2022/01/26 13:44:39;;;;;;;;;;;;;;;2.13;76.92;102266.84;4995843;28;19912;-80
2022/01/26 13:50:53;;;;;;;;;;;;;;;2.27;76.94;102259.28;4985284;28;19912;-79
2022/01/26 13:54:13;;;;;;;;;;;;;;;2.17;76.94;102265.16;4995971;28;19932;-80
2022/01/26 14:00:22;;;;;;;;;;;;;;;2.35;76.60;102262.78;5006766;28;19920;-80
2022/01/26 14:03:29;;;;;;;;;;;;;;;2.28;76.56;102261.84;5022698;28;19916;-80
2022/01/26 14:06:32;;;;;;;;;;;;;;;2.16;76.96;102269.47;5022932;28;20024;-80
2022/01/26 14:09:37;;;;;;;;;;;;;;;2.05;77.78;102276.25;5012464;28;20132;-79
2022/01/26 14:12:46;;;;;;;;;;;;;;;1.93;77.94;102276.97;5012362;28;19919;-80
2022/01/26 14:15:52;;;;;;;;;;;;;;;2.07;77.50;102277.09;5010938;28;20364;-80
2022/01/26 14:19:12;;;;;;;;;;;;;;;2.22;76.87;102282.44;4999366;28;19941;-80
2022/01/26 14:25:32;;;;;;;;;;;;;;;2.17;77.46;102267.75;5012548;28;19921;-79
2022/01/26 14:28:44;;;;;;;;;;;;;;;2.26;77.25;102263.53;4736599;28;10000573;-80
2022/01/26 14:32:03;;;;;;;;;;;;;;;2.14;77.78;102270.28;4994300;28;20241;-79
2022/01/26 15:52:56;;;;;;;;;;;;;;;2.09;76.25;102253.06;4999126;28;19984;-78
2022/01/26 16:04:16;;;;;;;;;;;;;;;2.61;75.65;102259.56;4999161;28;20039;-78
2022/01/26 16:16:33;;;;;;;;;;;;;;;2.55;74.33;102270.69;5017953;28;19962;-78
2022/01/26 17:03:35;;;;;;;;;;;;;;;2.42;75.67;102290.38;5025255;28;19982;-79
2022/01/26 18:16:02;;;;;;;;;;;;;;;2.27;75.20;102234.31;5017864;28;20491;-76
2022/01/26 18:32:28;;;;;;;;;;;;;;;2.15;75.35;102241.06;5028744;28;19924;-78
2022/01/26 18:49:22;;;;;;;;;;;;;;;2.19;75.76;102258.31;5011304;28;20094;-79
2022/01/26 18:52:25;;;;;;;;;;;;;;;2.21;75.41;102264.38;4998198;28;20284;-78
2022/01/26 18:55:28;;;;;;;;;;;;;;;2.14;75.39;102257.38;5010163;28;19919;-79
2022/01/26 18:58:32;;;;;;;;;;;;;;;2.19;75.53;102255.72;5010341;28;20028;-78
2022/01/26 19:01:35;;;;;;;;;;;;;;;2.29;75.55;102257.56;5011072;28;19920;-78
2022/01/26 19:04:47;;;;;;;;;;;;;;;2.38;74.47;102242.16;5011453;28;19917;-78
2022/01/26 19:07:51;;;;;;;;;;;;;;;2.14;74.74;102239.31;5010694;28;19920;-78
2022/01/26 19:10:54;;;;;;;;;;;;;;;2.26;74.69;102239.44;5010993;28;19996;-78
2022/01/26 19:14:00;;;;;;;;;;;;;;;2.24;74.59;102230.84;4999011;28;19924;-79
2022/01/26 19:20:32;;;;;;;;;;;;;;;1.94;75.13;102214.19;5005466;28;20020;-78
2022/01/26 19:24:01;;;;;;;;;;;;;;;1.96;75.29;102217.66;5020311;28;19920;-78
2022/01/26 19:27:09;;;;;;;;;;;;;;;1.90;74.97;102212.44;5019871;28;19936;-78
2022/01/26 19:53:23;;;;;;;;;;;;;;;2.42;74.04;102200.00;5031301;28;19971;-78
2022/01/26 19:56:26;;;;;;;;;;;;;;;2.72;73.45;102203.69;5030626;28;19921;-78
2022/01/26 19:59:30;;;;;;;;;;;;;;;2.68;73.49;102204.50;5006047;28;19924;-79
2022/01/26 20:02:33;;;;;;;;;;;;;;;2.15;74.89;102203.22;5030896;28;19919;-78
2022/01/26 20:05:37;;;;;;;;;;;;;;;2.21;74.64;102211.03;4996011;28;20264;-79
2022/01/26 20:09:02;;;;;;;;;;;;;;;2.12;75.23;102202.34;5008064;28;19958;-79
2022/01/26 20:12:09;;;;;;;;;;;;;;;2.27;74.79;102208.50;5018987;28;19924;-78
2022/01/26 20:15:12;;;;;;;;;;;;;;;2.25;74.90;102205.03;5007473;28;19920;-78
2022/01/26 20:18:16;;;;;;;;;;;;;;;2.14;75.26;102200.63;5017770;28;19939;-79
2022/01/26 20:21:20;;;;;;;;;;;;;;;2.01;75.15;102197.94;5027996;28;19935;-78
2022/01/26 20:24:25;;;;;;;;;;;;;;;1.93;75.19;102202.16;5019297;28;19967;-78
2022/01/26 20:27:31;;;;;;;;;;;;;;;1.84;75.96;102194.31;5008015;28;19920;-78
2022/01/26 20:30:37;;;;;;;;;;;;;;;1.75;76.10;102194.22;5031566;28;20748;-78
2022/01/26 20:33:41;;;;;;;;;;;;;;;1.98;75.86;102195.34;5018976;28;19979;-78
2022/01/26 20:36:44;;;;;;;;;;;;;;;2.13;75.49;102198.91;5029027;28;20462;-78
2022/01/26 20:39:47;;;;;;;;;;;;;;;2.08;75.01;102201.44;5030114;28;19966;-79
2022/01/26 20:42:51;;;;;;;;;;;;;;;1.99;75.01;102186.75;5006213;28;19920;-79
2022/01/26 20:45:54;;;;;;;;;;;;;;;2.04;75.11;102185.06;5017958;28;20051;-78
2022/01/26 20:48:58;;;;;;;;;;;;;;;1.79;74.95;102180.53;5030898;28;20012;-79
2022/01/26 20:52:02;;;;;;;;;;;;;;;1.86;74.69;102177.16;5017729;28;19959;-79
2022/01/26 20:55:06;;;;;;;;;;;;;;;1.88;74.79;102180.59;5030649;28;20006;-79
2022/01/26 20:58:09;;;;;;;;;;;;;;;1.82;75.04;102184.00;5017530;28;20303;-79
2022/01/26 21:01:13;;;;;;;;;;;;;;;1.85;74.77;102177.97;5023390;28;19983;-79
2022/01/26 21:04:16;;;;;;;;;;;;;;;2.06;74.07;102188.50;5030905;28;19920;-79
2022/01/26 21:07:20;;;;;;;;;;;;;;;1.58;75.28;102189.75;5018771;28;20296;-78
2022/01/26 21:10:24;;;;;;;;;;;;;;;1.62;75.32;102181.19;5006298;28;19920;-78
2022/01/26 21:13:28;;;;;;;;;;;;;;;1.54;74.96;102177.66;5006819;28;19920;-79
2022/01/26 21:16:32;;;;;;;;;;;;;;;1.50;75.77;102183.66;5029941;28;19967;-79
2022/01/26 21:19:35;;;;;;;;;;;;;;;1.62;75.40;102178.59;5016993;28;19966;-79
2022/01/26 21:22:38;;;;;;;;;;;;;;;1.59;75.20;102186.31;5010753;28;19967;-78
2022/01/26 21:25:42;;;;;;;;;;;;;;;1.53;75.50;102175.94;4998937;28;19967;-79
2022/01/26 21:28:45;;;;;;;;;;;;;;;1.52;75.23;102176.78;5002548;28;19920;-79
2022/01/26 21:31:49;;;;;;;;;;;;;;;1.38;75.82;102174.03;5017529;28;20583;-79
2022/01/26 21:34:53;;;;;;;;;;;;;;;1.61;75.42;102170.88;5017910;28;19920;-79
2022/01/26 21:37:57;;;;;;;;;;;;;;;1.60;75.57;102171.72;5017584;28;19923;-79
2022/01/26 21:41:00;;;;;;;;;;;;;;;1.53;75.57;102169.91;5030380;28;19959;-78
2022/01/26 21:44:04;;;;;;;;;;;;;;;1.70;75.15;102162.38;5030167;28;20454;-78
2022/01/26 21:47:08;;;;;;;;;;;;;;;1.59;75.42;102165.69;5030412;28;19920;-78
2022/01/26 21:50:11;;;;;;;;;;;;;;;1.65;75.05;102169.19;5016464;28;19920;-78
2022/01/26 21:53:17;;;;;;;;;;;;;;;1.72;75.01;102165.81;5029639;28;19942;-78
2022/01/26 21:56:20;;;;;;;;;;;;;;;1.52;75.36;102163.03;5029496;28;20065;-79
2022/01/26 21:59:24;;;;;;;;;;;;;;;1.46;75.43;102158.66;5015141;28;20331;-78
2022/01/26 22:02:27;;;;;;;;;;;;;;;1.39;75.65;102151.72;5016486;28;20235;-78
2022/01/26 22:05:34;;;;;;;;;;;;;;;1.46;75.62;102152.63;5005354;28;19920;-78
2022/01/26 22:08:38;;;;;;;;;;;;;;;1.44;75.53;102151.78;5016628;28;19920;-78
2022/01/26 22:11:41;;;;;;;;;;;;;;;1.25;76.00;102143.81;5027315;28;19920;-78
2022/01/26 22:14:45;;;;;;;;;;;;;;;1.51;75.58;102151.00;5015428;28;20324;-78
2022/01/26 22:17:49;;;;;;;;;;;;;;;1.27;75.80;102141.25;5015456;28;20475;-78
2022/01/26 22:20:52;;;;;;;;;;;;;;;1.32;75.73;102137.88;5014895;28;20272;-78
2022/01/26 22:23:56;;;;;;;;;;;;;;;1.45;75.38;102146.63;5020023;28;19963;-78
2022/01/26 22:27:02;;;;;;;;;;;;;;;1.53;75.01;102137.28;5031800;28;20370;-78